GLO1529 SBIL-SBKG
Flight info
| Callsign | GLO1529 |
|---|---|
| Flight time | 1h 14m |
| Altitude | 39000 |
| Route | VUREK UZ73 OPMUD DCT MUDAR |
| Aircraft | B738/M-SDE2E3FGHIRWXY/LB1 |
Departure
| Time | 2026-04-19 17:41 |
|---|---|
| Airport | Bahia - Jorge Amado Airport (SBIL) |
Arrival
| Time | 2026-04-19 18:55 |
|---|---|
| Airport | Presidente João Suassuna Airport (SBKG) |
| Time | Latitude | Longitude | Altitude | Speed | Heading |
|---|---|---|---|---|---|
| 2026-04-19 17:15 | -14.81445 | -39.03207 | 19 ft | 0 kts | 309° |
| 2026-04-19 17:34 | -14.81448 | -39.03203 | 19 ft | 2 kts | 314° |
| 2026-04-19 17:34 | -14.81461 | -39.03193 | 20 ft | 2 kts | 335° |
| 2026-04-19 17:34 | -14.81476 | -39.03187 | 18 ft | 2 kts | 326° |
| 2026-04-19 17:35 | -14.81482 | -39.03180 | 20 ft | 0 kts | 276° |
| 2026-04-19 17:37 | -14.81483 | -39.03183 | 20 ft | 1 kts | 268° |
| 2026-04-19 17:37 | -14.81483 | -39.03196 | 18 ft | 2 kts | 269° |
| 2026-04-19 17:37 | -14.81483 | -39.03211 | 18 ft | 3 kts | 268° |
| 2026-04-19 17:38 | -14.81496 | -39.03238 | 21 ft | 6 kts | 218° |
| 2026-04-19 17:38 | -14.81560 | -39.03247 | 18 ft | 13 kts | 196° |
| 2026-04-19 17:38 | -14.81593 | -39.03344 | 18 ft | 18 kts | 270° |
| 2026-04-19 17:38 | -14.81597 | -39.03487 | 20 ft | 22 kts | 268° |
| 2026-04-19 17:39 | -14.81601 | -39.03661 | 21 ft | 25 kts | 269° |
| 2026-04-19 17:39 | -14.81606 | -39.03840 | 22 ft | 24 kts | 268° |
| 2026-04-19 17:39 | -14.81607 | -39.03993 | 24 ft | 11 kts | 287° |
| 2026-04-19 17:39 | -14.81599 | -39.04020 | 22 ft | 1 kts | 240° |
| 2026-04-19 17:40 | -14.81608 | -39.04017 | 22 ft | 1 kts | 142° |
| 2026-04-19 17:40 | -14.81610 | -39.03995 | 22 ft | 9 kts | 91° |
| 2026-04-19 17:40 | -14.81600 | -39.03604 | 21 ft | 100 kts | 88° |
| 2026-04-19 17:40 | -14.81564 | -39.02628 | 213 ft | 157 kts | 86° |
| 2026-04-19 17:41 | -14.81422 | -39.01493 | 1163 ft | 163 kts | 71° |
| 2026-04-19 17:41 | -14.80717 | -39.00555 | 2060 ft | 175 kts | 32° |
| 2026-04-19 17:41 | -14.79565 | -38.99908 | 2573 ft | 205 kts | 28° |
| 2026-04-19 17:41 | -14.78212 | -38.99154 | 2827 ft | 235 kts | 28° |
| 2026-04-19 17:42 | -14.76670 | -38.98329 | 3110 ft | 261 kts | 26° |
| 2026-04-19 17:42 | -14.75010 | -38.97475 | 3833 ft | 270 kts | 26° |
| 2026-04-19 17:42 | -14.73343 | -38.96613 | 4820 ft | 272 kts | 26° |
| 2026-04-19 17:42 | -14.71617 | -38.95711 | 5729 ft | 277 kts | 26° |
| 2026-04-19 17:43 | -14.69884 | -38.94795 | 6612 ft | 281 kts | 26° |
| 2026-04-19 17:43 | -14.68136 | -38.93864 | 7480 ft | 285 kts | 26° |
| 2026-04-19 17:43 | -14.66365 | -38.92915 | 8346 ft | 288 kts | 26° |
| 2026-04-19 17:43 | -14.64594 | -38.91962 | 9196 ft | 292 kts | 26° |
| 2026-04-19 17:44 | -14.62784 | -38.90984 | 10043 ft | 296 kts | 26° |
| 2026-04-19 17:44 | -14.60905 | -38.89970 | 10469 ft | 316 kts | 26° |
| 2026-04-19 17:44 | -14.58848 | -38.88858 | 10663 ft | 342 kts | 26° |
| 2026-04-19 17:44 | -14.56725 | -38.87709 | 11122 ft | 354 kts | 26° |
| 2026-04-19 17:45 | -14.54528 | -38.86516 | 11801 ft | 359 kts | 26° |
| 2026-04-19 17:45 | -14.52309 | -38.85312 | 12543 ft | 362 kts | 27° |
| 2026-04-19 17:45 | -14.50071 | -38.84097 | 13243 ft | 366 kts | 27° |
| 2026-04-19 17:45 | -14.47802 | -38.82866 | 13895 ft | 370 kts | 27° |
| 2026-04-19 17:46 | -14.45507 | -38.81621 | 14494 ft | 374 kts | 26° |
| 2026-04-19 17:46 | -14.43190 | -38.80365 | 15114 ft | 378 kts | 26° |
| 2026-04-19 17:46 | -14.40852 | -38.79097 | 15742 ft | 381 kts | 26° |
| 2026-04-19 17:46 | -14.38489 | -38.77817 | 16323 ft | 385 kts | 26° |
| 2026-04-19 17:47 | -14.36099 | -38.76523 | 16924 ft | 389 kts | 26° |
| 2026-04-19 17:47 | -14.33689 | -38.75217 | 17512 ft | 393 kts | 26° |
| 2026-04-19 17:47 | -14.31255 | -38.73900 | 18093 ft | 397 kts | 26° |
| 2026-04-19 17:47 | -14.28794 | -38.72568 | 18600 ft | 401 kts | 26° |
| 2026-04-19 17:48 | -14.26309 | -38.71223 | 19104 ft | 404 kts | 26° |
| 2026-04-19 17:48 | -14.23815 | -38.69873 | 19615 ft | 407 kts | 26° |
| 2026-04-19 17:48 | -14.21287 | -38.68506 | 20117 ft | 410 kts | 25° |
| 2026-04-19 17:48 | -14.18752 | -38.67135 | 20595 ft | 413 kts | 25° |
| 2026-04-19 17:49 | -14.16226 | -38.65769 | 21085 ft | 416 kts | 25° |
| 2026-04-19 17:49 | -14.13650 | -38.64377 | 21554 ft | 419 kts | 25° |
| 2026-04-19 17:49 | -14.11058 | -38.62977 | 22016 ft | 423 kts | 25° |
| 2026-04-19 17:49 | -14.08409 | -38.61545 | 22481 ft | 426 kts | 25° |
| 2026-04-19 17:50 | -14.05811 | -38.60142 | 22918 ft | 429 kts | 25° |
| 2026-04-19 17:50 | -14.03147 | -38.58703 | 23354 ft | 432 kts | 25° |
| 2026-04-19 17:50 | -14.00472 | -38.57259 | 23726 ft | 435 kts | 25° |
| 2026-04-19 17:50 | -13.97772 | -38.55801 | 24082 ft | 438 kts | 25° |
| 2026-04-19 17:51 | -13.95066 | -38.54340 | 24436 ft | 441 kts | 25° |
| 2026-04-19 17:51 | -13.92339 | -38.52870 | 24771 ft | 444 kts | 24° |
| 2026-04-19 17:51 | -13.89577 | -38.51444 | 25101 ft | 445 kts | 20° |
| 2026-04-19 17:51 | -13.86664 | -38.50404 | 25425 ft | 443 kts | 12° |
| 2026-04-19 17:52 | -13.83666 | -38.49592 | 25773 ft | 445 kts | 11° |
| 2026-04-19 17:52 | -13.80691 | -38.48826 | 26103 ft | 447 kts | 10° |
| 2026-04-19 17:52 | -13.77629 | -38.48041 | 26438 ft | 450 kts | 10° |
| 2026-04-19 17:52 | -13.74587 | -38.47252 | 26748 ft | 452 kts | 10° |
| 2026-04-19 17:53 | -13.71565 | -38.46456 | 27061 ft | 454 kts | 10° |
| 2026-04-19 17:53 | -13.68498 | -38.45639 | 27377 ft | 456 kts | 10° |
| 2026-04-19 17:53 | -13.65419 | -38.44812 | 27685 ft | 458 kts | 10° |
| 2026-04-19 17:53 | -13.62328 | -38.43979 | 27967 ft | 461 kts | 10° |
| 2026-04-19 17:54 | -13.59217 | -38.43139 | 28251 ft | 463 kts | 10° |
| 2026-04-19 17:54 | -13.56082 | -38.42294 | 28535 ft | 465 kts | 10° |
| 2026-04-19 17:54 | -13.52941 | -38.41447 | 28817 ft | 467 kts | 10° |
| 2026-04-19 17:54 | -13.49792 | -38.40598 | 29088 ft | 469 kts | 10° |
| 2026-04-19 17:55 | -13.46622 | -38.39745 | 29352 ft | 471 kts | 10° |
| 2026-04-19 17:55 | -13.43438 | -38.38888 | 29611 ft | 473 kts | 10° |
| 2026-04-19 17:55 | -13.40282 | -38.38039 | 29854 ft | 475 kts | 10° |
| 2026-04-19 17:55 | -13.37068 | -38.37175 | 30074 ft | 477 kts | 10° |
| 2026-04-19 17:56 | -13.33856 | -38.36311 | 30281 ft | 479 kts | 10° |
| 2026-04-19 17:56 | -13.30628 | -38.35444 | 30480 ft | 480 kts | 10° |
| 2026-04-19 17:56 | -13.27384 | -38.34572 | 30680 ft | 482 kts | 10° |
| 2026-04-19 17:56 | -13.24135 | -38.33699 | 30884 ft | 483 kts | 10° |
| 2026-04-19 17:57 | -13.20880 | -38.32824 | 31142 ft | 483 kts | 10° |
| 2026-04-19 17:57 | -13.17629 | -38.31950 | 31455 ft | 482 kts | 10° |
| 2026-04-19 17:57 | -13.14393 | -38.31081 | 31789 ft | 480 kts | 10° |
| 2026-04-19 17:57 | -13.11157 | -38.30212 | 32090 ft | 480 kts | 10° |
| 2026-04-19 17:58 | -13.07927 | -38.29346 | 32378 ft | 480 kts | 10° |
| 2026-04-19 17:58 | -13.04699 | -38.28482 | 32691 ft | 479 kts | 10° |
| 2026-04-19 17:58 | -13.01468 | -38.27616 | 33013 ft | 478 kts | 10° |
| 2026-04-19 17:58 | -12.98246 | -38.26754 | 33330 ft | 477 kts | 10° |
| 2026-04-19 17:59 | -12.95035 | -38.25894 | 33653 ft | 477 kts | 10° |
| 2026-04-19 17:59 | -12.91831 | -38.25037 | 33973 ft | 476 kts | 10° |
| 2026-04-19 17:59 | -12.88660 | -38.24188 | 34264 ft | 475 kts | 10° |
| 2026-04-19 17:59 | -12.85433 | -38.23324 | 34555 ft | 474 kts | 10° |
| 2026-04-19 18:00 | -12.82244 | -38.22472 | 34846 ft | 473 kts | 10° |
| 2026-04-19 18:00 | -12.79067 | -38.21622 | 35127 ft | 471 kts | 10° |
| 2026-04-19 18:00 | -12.75899 | -38.20775 | 35414 ft | 470 kts | 10° |
| 2026-04-19 18:00 | -12.72728 | -38.19927 | 35688 ft | 470 kts | 10° |
| 2026-04-19 18:01 | -12.69568 | -38.19083 | 35962 ft | 469 kts | 10° |
| 2026-04-19 18:01 | -12.66413 | -38.18240 | 36239 ft | 468 kts | 10° |
| 2026-04-19 18:01 | -12.63262 | -38.17399 | 36503 ft | 467 kts | 10° |
| 2026-04-19 18:01 | -12.60126 | -38.16561 | 36769 ft | 466 kts | 10° |
| 2026-04-19 18:02 | -12.56987 | -38.15724 | 37035 ft | 465 kts | 10° |
| 2026-04-19 18:02 | -12.53852 | -38.14887 | 37296 ft | 464 kts | 10° |
| 2026-04-19 18:02 | -12.50727 | -38.14053 | 37554 ft | 464 kts | 10° |
| 2026-04-19 18:02 | -12.47605 | -38.13221 | 37793 ft | 463 kts | 10° |
| 2026-04-19 18:03 | -12.44487 | -38.12389 | 38025 ft | 462 kts | 10° |
| 2026-04-19 18:03 | -12.41378 | -38.11560 | 38284 ft | 461 kts | 10° |
| 2026-04-19 18:03 | -12.38277 | -38.10733 | 38512 ft | 460 kts | 10° |
| 2026-04-19 18:03 | -12.35175 | -38.09906 | 38691 ft | 460 kts | 10° |
| 2026-04-19 18:04 | -12.32075 | -38.09081 | 38852 ft | 460 kts | 10° |
| 2026-04-19 18:04 | -12.28969 | -38.08254 | 38864 ft | 463 kts | 10° |
| 2026-04-19 18:04 | -12.22743 | -38.06597 | 38881 ft | 460 kts | 10° |
| 2026-04-19 18:05 | -12.16563 | -38.04953 | 38873 ft | 457 kts | 10° |
| 2026-04-19 18:05 | -12.10416 | -38.03318 | 38870 ft | 455 kts | 10° |
| 2026-04-19 18:06 | -12.04284 | -38.01688 | 38871 ft | 453 kts | 10° |
| 2026-04-19 18:06 | -11.98184 | -38.00068 | 38869 ft | 453 kts | 10° |
| 2026-04-19 18:07 | -11.90017 | -37.97900 | 38871 ft | 453 kts | 10° |
| 2026-04-19 18:08 | -11.83895 | -37.96277 | 38877 ft | 455 kts | 10° |
| 2026-04-19 18:08 | -11.77750 | -37.94647 | 38871 ft | 457 kts | 11° |
| 2026-04-19 18:09 | -11.71574 | -37.93009 | 38871 ft | 459 kts | 11° |
| 2026-04-19 18:09 | -11.65381 | -37.91368 | 38870 ft | 461 kts | 11° |
| 2026-04-19 18:10 | -11.59163 | -37.89720 | 38868 ft | 462 kts | 11° |
| 2026-04-19 18:10 | -11.52937 | -37.88071 | 38868 ft | 463 kts | 11° |
| 2026-04-19 18:11 | -11.46696 | -37.86419 | 38864 ft | 463 kts | 11° |
| 2026-04-19 18:11 | -11.40467 | -37.84771 | 38870 ft | 462 kts | 11° |
| 2026-04-19 18:12 | -11.34202 | -37.83114 | 38862 ft | 462 kts | 11° |
| 2026-04-19 18:12 | -11.27990 | -37.81472 | 38865 ft | 460 kts | 11° |
| 2026-04-19 18:13 | -11.21793 | -37.79834 | 38865 ft | 459 kts | 11° |
| 2026-04-19 18:13 | -11.15615 | -37.78201 | 38866 ft | 458 kts | 11° |
| 2026-04-19 18:14 | -11.09437 | -37.76570 | 38867 ft | 457 kts | 11° |
| 2026-04-19 18:14 | -11.03283 | -37.74946 | 38862 ft | 456 kts | 11° |
| 2026-04-19 18:15 | -10.97138 | -37.73325 | 38869 ft | 455 kts | 11° |
| 2026-04-19 18:15 | -10.91041 | -37.71717 | 38868 ft | 455 kts | 11° |
| 2026-04-19 18:16 | -10.84906 | -37.70099 | 38868 ft | 455 kts | 11° |
| 2026-04-19 18:16 | -10.78781 | -37.68485 | 38859 ft | 455 kts | 11° |
| 2026-04-19 18:17 | -10.72654 | -37.66871 | 38869 ft | 454 kts | 11° |
| 2026-04-19 18:17 | -10.66531 | -37.65259 | 38866 ft | 454 kts | 11° |
| 2026-04-19 18:18 | -10.60408 | -37.63647 | 38858 ft | 454 kts | 11° |
| 2026-04-19 18:18 | -10.54289 | -37.62037 | 38862 ft | 454 kts | 11° |
| 2026-04-19 18:19 | -10.48212 | -37.60439 | 38860 ft | 454 kts | 11° |
| 2026-04-19 18:19 | -10.42095 | -37.58833 | 38851 ft | 454 kts | 12° |
| 2026-04-19 18:20 | -10.35968 | -37.57225 | 38857 ft | 454 kts | 12° |
| 2026-04-19 18:20 | -10.29850 | -37.55619 | 38855 ft | 454 kts | 12° |
| 2026-04-19 18:21 | -10.23730 | -37.54013 | 38854 ft | 454 kts | 12° |
| 2026-04-19 18:21 | -10.17608 | -37.52408 | 38855 ft | 454 kts | 12° |
| 2026-04-19 18:22 | -10.11491 | -37.50804 | 38852 ft | 455 kts | 12° |
| 2026-04-19 18:22 | -10.05354 | -37.49195 | 38851 ft | 455 kts | 12° |
| 2026-04-19 18:23 | -9.99214 | -37.47587 | 38851 ft | 456 kts | 12° |
| 2026-04-19 18:23 | -9.93072 | -37.45978 | 38845 ft | 456 kts | 12° |
| 2026-04-19 18:24 | -9.86919 | -37.44367 | 38844 ft | 456 kts | 12° |
| 2026-04-19 18:24 | -9.80809 | -37.42768 | 38845 ft | 456 kts | 12° |
| 2026-04-19 18:25 | -9.74647 | -37.41156 | 38842 ft | 456 kts | 13° |
| 2026-04-19 18:25 | -9.68494 | -37.39548 | 38843 ft | 456 kts | 13° |
| 2026-04-19 18:26 | -9.62309 | -37.37931 | 38846 ft | 456 kts | 13° |
| 2026-04-19 18:26 | -9.56196 | -37.36333 | 38842 ft | 456 kts | 13° |
| 2026-04-19 18:27 | -9.50053 | -37.34729 | 38847 ft | 455 kts | 13° |
| 2026-04-19 18:27 | -9.43914 | -37.33126 | 38849 ft | 455 kts | 13° |
| 2026-04-19 18:28 | -9.37784 | -37.31526 | 38851 ft | 455 kts | 13° |
| 2026-04-19 18:28 | -9.31656 | -37.29927 | 38850 ft | 454 kts | 13° |
| 2026-04-19 18:29 | -9.25536 | -37.28331 | 38847 ft | 454 kts | 13° |
| 2026-04-19 18:29 | -9.19380 | -37.26726 | 38857 ft | 454 kts | 13° |
| 2026-04-19 18:30 | -9.13256 | -37.25129 | 38851 ft | 454 kts | 13° |
| 2026-04-19 18:30 | -9.07180 | -37.23546 | 38854 ft | 454 kts | 13° |
| 2026-04-19 18:31 | -9.01047 | -37.21948 | 38778 ft | 456 kts | 14° |
| 2026-04-19 18:31 | -8.98020 | -37.20889 | 38247 ft | 463 kts | 23° |
| 2026-04-19 18:31 | -8.95155 | -37.19366 | 37628 ft | 468 kts | 32° |
| 2026-04-19 18:31 | -8.92524 | -37.17403 | 37007 ft | 472 kts | 37° |
| 2026-04-19 18:32 | -8.89955 | -37.15317 | 36390 ft | 475 kts | 38° |
| 2026-04-19 18:32 | -8.87397 | -37.13201 | 35768 ft | 476 kts | 38° |
| 2026-04-19 18:32 | -8.84817 | -37.11070 | 35042 ft | 480 kts | 38° |
| 2026-04-19 18:32 | -8.82221 | -37.08944 | 34536 ft | 479 kts | 38° |
| 2026-04-19 18:33 | -8.79619 | -37.06831 | 33998 ft | 479 kts | 37° |
| 2026-04-19 18:33 | -8.77015 | -37.04730 | 33451 ft | 479 kts | 37° |
| 2026-04-19 18:33 | -8.74391 | -37.02623 | 32946 ft | 484 kts | 37° |
| 2026-04-19 18:33 | -8.71705 | -37.00469 | 32432 ft | 490 kts | 37° |
| 2026-04-19 18:34 | -8.69020 | -36.98317 | 31912 ft | 492 kts | 37° |
| 2026-04-19 18:34 | -8.66333 | -36.96163 | 31379 ft | 494 kts | 38° |
| 2026-04-19 18:34 | -8.63642 | -36.94005 | 30865 ft | 495 kts | 38° |
| 2026-04-19 18:34 | -8.60939 | -36.91838 | 30336 ft | 496 kts | 38° |
| 2026-04-19 18:35 | -8.58237 | -36.89670 | 29800 ft | 496 kts | 38° |
| 2026-04-19 18:35 | -8.55530 | -36.87499 | 29200 ft | 496 kts | 38° |
| 2026-04-19 18:35 | -8.52826 | -36.85331 | 28649 ft | 495 kts | 38° |
| 2026-04-19 18:35 | -8.50127 | -36.83167 | 28104 ft | 494 kts | 38° |
| 2026-04-19 18:36 | -8.47439 | -36.81013 | 27574 ft | 494 kts | 38° |
| 2026-04-19 18:36 | -8.44737 | -36.78848 | 27032 ft | 496 kts | 38° |
| 2026-04-19 18:36 | -8.41988 | -36.76645 | 26481 ft | 500 kts | 38° |
| 2026-04-19 18:36 | -8.39248 | -36.74451 | 25915 ft | 502 kts | 38° |
| 2026-04-19 18:37 | -8.36518 | -36.72265 | 25356 ft | 500 kts | 38° |
| 2026-04-19 18:37 | -8.33834 | -36.70116 | 24802 ft | 497 kts | 38° |
| 2026-04-19 18:37 | -8.31137 | -36.67956 | 24250 ft | 494 kts | 38° |
| 2026-04-19 18:37 | -8.28421 | -36.65781 | 23692 ft | 488 kts | 38° |
| 2026-04-19 18:38 | -8.26674 | -36.64382 | 23307 ft | 481 kts | 38° |
| 2026-04-19 18:38 | -8.24074 | -36.62302 | 22707 ft | 472 kts | 38° |
| 2026-04-19 18:38 | -8.20662 | -36.59687 | 21992 ft | 459 kts | 32° |
| 2026-04-19 18:38 | -8.17897 | -36.58143 | 21461 ft | 451 kts | 27° |
| 2026-04-19 18:39 | -8.16000 | -36.57169 | 21112 ft | 453 kts | 27° |
| 2026-04-19 18:39 | -8.13185 | -36.55728 | 20594 ft | 455 kts | 27° |
| 2026-04-19 18:39 | -8.10366 | -36.54277 | 20076 ft | 453 kts | 27° |
| 2026-04-19 18:39 | -8.07579 | -36.52834 | 19556 ft | 448 kts | 28° |
| 2026-04-19 18:40 | -8.04827 | -36.51400 | 19044 ft | 443 kts | 28° |
| 2026-04-19 18:40 | -8.02100 | -36.49974 | 18536 ft | 439 kts | 28° |
| 2026-04-19 18:40 | -7.99397 | -36.48557 | 18002 ft | 436 kts | 28° |
| 2026-04-19 18:40 | -7.96713 | -36.47149 | 17465 ft | 433 kts | 28° |
| 2026-04-19 18:41 | -7.94056 | -36.45755 | 16941 ft | 429 kts | 28° |
| 2026-04-19 18:41 | -7.91421 | -36.44373 | 16463 ft | 425 kts | 28° |
| 2026-04-19 18:41 | -7.88809 | -36.43004 | 15969 ft | 422 kts | 28° |
| 2026-04-19 18:41 | -7.86208 | -36.41641 | 15489 ft | 419 kts | 28° |
| 2026-04-19 18:42 | -7.83630 | -36.40290 | 15013 ft | 417 kts | 28° |
| 2026-04-19 18:42 | -7.81055 | -36.38942 | 14530 ft | 415 kts | 28° |
| 2026-04-19 18:42 | -7.78499 | -36.37603 | 14048 ft | 413 kts | 28° |
| 2026-04-19 18:42 | -7.75962 | -36.36274 | 13541 ft | 407 kts | 28° |
| 2026-04-19 18:43 | -7.73481 | -36.34976 | 13034 ft | 397 kts | 28° |
| 2026-04-19 18:43 | -7.71051 | -36.33704 | 12550 ft | 389 kts | 28° |
| 2026-04-19 18:43 | -7.68674 | -36.32460 | 12096 ft | 381 kts | 29° |
| 2026-04-19 18:43 | -7.66341 | -36.31240 | 11659 ft | 374 kts | 29° |
| 2026-04-19 18:44 | -7.64053 | -36.30042 | 11221 ft | 367 kts | 29° |
| 2026-04-19 18:44 | -7.61805 | -36.28865 | 10810 ft | 362 kts | 29° |
| 2026-04-19 18:44 | -7.59585 | -36.27704 | 10386 ft | 357 kts | 29° |
| 2026-04-19 18:44 | -7.57420 | -36.26571 | 10218 ft | 345 kts | 29° |
| 2026-04-19 18:45 | -7.55345 | -36.25487 | 10045 ft | 326 kts | 29° |
| 2026-04-19 18:45 | -7.53391 | -36.24467 | 9901 ft | 307 kts | 29° |
| 2026-04-19 18:45 | -7.51551 | -36.23506 | 9833 ft | 288 kts | 29° |
| 2026-04-19 18:45 | -7.49799 | -36.22589 | 9394 ft | 284 kts | 29° |
| 2026-04-19 18:46 | -7.48062 | -36.21680 | 9058 ft | 281 kts | 30° |
| 2026-04-19 18:46 | -7.46332 | -36.20773 | 8754 ft | 280 kts | 29° |
| 2026-04-19 18:46 | -7.44599 | -36.19866 | 8456 ft | 280 kts | 30° |
| 2026-04-19 18:46 | -7.42870 | -36.18961 | 8153 ft | 279 kts | 29° |
| 2026-04-19 18:47 | -7.41152 | -36.18064 | 7865 ft | 278 kts | 29° |
| 2026-04-19 18:47 | -7.39438 | -36.17167 | 7572 ft | 277 kts | 29° |
| 2026-04-19 18:47 | -7.37758 | -36.16288 | 7261 ft | 273 kts | 30° |
| 2026-04-19 18:47 | -7.36095 | -36.15419 | 6997 ft | 266 kts | 29° |
| 2026-04-19 18:48 | -7.34469 | -36.14569 | 6722 ft | 260 kts | 30° |
| 2026-04-19 18:48 | -7.32879 | -36.13739 | 6456 ft | 255 kts | 30° |
| 2026-04-19 18:48 | -7.31323 | -36.12925 | 6228 ft | 251 kts | 29° |
| 2026-04-19 18:48 | -7.29774 | -36.12115 | 5882 ft | 249 kts | 29° |
| 2026-04-19 18:49 | -7.28257 | -36.11324 | 5637 ft | 241 kts | 29° |
| 2026-04-19 18:49 | -7.26796 | -36.10562 | 5439 ft | 232 kts | 30° |
| 2026-04-19 18:49 | -7.25377 | -36.09822 | 5363 ft | 229 kts | 30° |
| 2026-04-19 18:49 | -7.24045 | -36.08985 | 5355 ft | 221 kts | 37° |
| 2026-04-19 18:50 | -7.22806 | -36.08097 | 5290 ft | 218 kts | 37° |
| 2026-04-19 18:50 | -7.21583 | -36.07220 | 5201 ft | 211 kts | 38° |
| 2026-04-19 18:50 | -7.20410 | -36.06386 | 5155 ft | 203 kts | 38° |
| 2026-04-19 18:50 | -7.19250 | -36.05564 | 5016 ft | 205 kts | 37° |
| 2026-04-19 18:51 | -7.18208 | -36.04557 | 4673 ft | 214 kts | 67° |
| 2026-04-19 18:51 | -7.18064 | -36.03154 | 4501 ft | 204 kts | 107° |
| 2026-04-19 18:51 | -7.18663 | -36.01862 | 4238 ft | 198 kts | 119° |
| 2026-04-19 18:52 | -7.19948 | -35.99687 | 3795 ft | 169 kts | 124° |
| 2026-04-19 18:52 | -7.20583 | -35.98769 | 3619 ft | 151 kts | 125° |
| 2026-04-19 18:52 | -7.21173 | -35.97925 | 3469 ft | 145 kts | 123° |
| 2026-04-19 18:52 | -7.21726 | -35.97126 | 3261 ft | 135 kts | 123° |
| 2026-04-19 18:53 | -7.22256 | -35.96364 | 3096 ft | 132 kts | 122° |
| 2026-04-19 18:53 | -7.22781 | -35.95604 | 2933 ft | 132 kts | 124° |
| 2026-04-19 18:53 | -7.23315 | -35.94846 | 2777 ft | 135 kts | 124° |
| 2026-04-19 18:53 | -7.23866 | -35.94078 | 2639 ft | 132 kts | 124° |
| 2026-04-19 18:54 | -7.24387 | -35.93318 | 2441 ft | 131 kts | 122° |
| 2026-04-19 18:54 | -7.24907 | -35.92559 | 2307 ft | 134 kts | 121° |
| 2026-04-19 18:54 | -7.25432 | -35.91777 | 2162 ft | 136 kts | 124° |
| 2026-04-19 18:54 | -7.25990 | -35.90990 | 1948 ft | 140 kts | 123° |
| 2026-04-19 18:55 | -7.26541 | -35.90205 | 1736 ft | 132 kts | 122° |
| 2026-04-19 18:55 | -7.26984 | -35.89565 | 1681 ft | 69 kts | 126° |
| 2026-04-19 18:55 | -7.27130 | -35.89360 | 1681 ft | 27 kts | 125° |
| 2026-04-19 18:55 | -7.27235 | -35.89210 | 1682 ft | 25 kts | 124° |
| 2026-04-19 18:56 | -7.27330 | -35.89079 | 1679 ft | 17 kts | 134° |
| 2026-04-19 18:56 | -7.27390 | -35.89033 | 1677 ft | 9 kts | 114° |
| 2026-04-19 18:56 | -7.27381 | -35.89014 | 1677 ft | 3 kts | 21° |
| 2026-04-19 18:56 | -7.27367 | -35.89025 | 1677 ft | 4 kts | 304° |
| 2026-04-19 18:57 | -7.27332 | -35.89073 | 1680 ft | 13 kts | 306° |
| 2026-04-19 18:57 | -7.27265 | -35.89169 | 1682 ft | 20 kts | 304° |
| 2026-04-19 18:57 | -7.27183 | -35.89286 | 1678 ft | 21 kts | 305° |
| 2026-04-19 18:57 | -7.27102 | -35.89403 | 1678 ft | 20 kts | 305° |
| 2026-04-19 18:58 | -7.27043 | -35.89471 | 1681 ft | 8 kts | 346° |
| 2026-04-19 18:58 | -7.27002 | -35.89455 | 1680 ft | 6 kts | 31° |
| 2026-04-19 18:58 | -7.26965 | -35.89437 | 1682 ft | 6 kts | 23° |
| 2026-04-19 18:58 | -7.26944 | -35.89424 | 1680 ft | 2 kts | 35° |
| 2026-04-19 18:59 | -7.26934 | -35.89418 | 1679 ft | 2 kts | 34° |
| 2026-04-19 18:59 | -7.26933 | -35.89416 | 1679 ft | 0 kts | 34° |
| 2026-04-19 18:59 | -7.26932 | -35.89416 | 1679 ft | 0 kts | 34° |